| time (UTC) | temp C | wind direction | speed KPH | gust KPH | rain 1hr cm | rain 24hr cm | rain mn cm | humidity % | barometer mb |
| 20260506182502 | 23 | 345 | 6.4 | 9.7 | 0.00 | 0.00 | 0.00 | 28 | 1023.6 |
| 20260506181959 | 23 | 236 | 3.2 | 3.2 | 0.00 | 0.00 | 0.00 | 29 | 1024.0 |
| 20260506181457 | 23 | 201 | 1.6 | 3.2 | 0.00 | 0.00 | 0.00 | 28 | 1023.6 |
| 20260506180953 | 23 | 209 | 0.0 | 1.6 | 0.00 | 0.00 | 0.00 | 31 | 1023.6 |
| 20260506180450 | 23 | 202 | 1.6 | 3.2 | 0.00 | 0.00 | 0.00 | 29 | 1023.8 |
| 20260506175947 | 22 | 265 | 1.6 | 3.2 | 0.00 | 0.00 | 0.00 | 30 | 1023.8 |
| 20260506175443 | 22 | 306 | 4.8 | 4.8 | 0.00 | 0.00 | 0.00 | 29 | 1023.8 |
| 20260506174940 | 22 | 124 | 1.6 | 3.2 | 0.00 | 0.00 | 0.00 | 30 | 1023.9 |
| 20260506174438 | 21 | 232 | 3.2 | 3.2 | 0.00 | 0.00 | 0.00 | 33 | 1023.9 |
| 20260506173934 | 22 | 208 | 3.2 | 3.2 | 0.00 | 0.00 | 0.00 | 32 | 1023.8 |
| 20260506173432 | 22 | 213 | 0.0 | 1.6 | 0.00 | 0.00 | 0.00 | 32 | 1023.8 |
| 20260506172929 | 21 | 218 | 3.2 | 4.8 | 0.00 | 0.00 | 0.00 | 33 | 1024.0 |
| 20260506172426 | 21 | 195 | 3.2 | 3.2 | 0.00 | 0.00 | 0.00 | 33 | 1023.8 |
| 20260506171922 | 21 | 231 | 0.0 | 1.6 | 0.00 | 0.00 | 0.00 | 32 | 1024.0 |
| 20260506171420 | 21 | 228 | 1.6 | 3.2 | 0.00 | 0.00 | 0.00 | 33 | 1023.6 |
| 20260506170918 | 21 | 215 | 3.2 | 3.2 | 0.00 | 0.00 | 0.00 | 32 | 1024.0 |
| 20260506170414 | 20 | 218 | 0.0 | 1.6 | 0.00 | 0.00 | 0.00 | 35 | 1023.8 |
| 20260506165913 | 20 | 170 | 1.6 | 1.6 | 0.00 | 0.00 | 0.00 | 36 | 1024.0 |
| 20260506165410 | 20 | 202 | 1.6 | 1.6 | 0.00 | 0.00 | 0.00 | 34 | 1023.6 |
| 20260506164901 | 20 | 180 | 4.8 | 8.0 | 0.00 | 0.00 | 0.00 | 34 | 1023.9 |
| 20260506164357 | 20 | 196 | 1.6 | 1.6 | 0.00 | 0.00 | 0.00 | 39 | 1023.9 |
| 20260506163856 | 20 | 169 | 0.0 | 0.0 | 0.00 | 0.00 | 0.00 | 38 | 1024.1 |
| 20260506163349 | 20 | 187 | 0.0 | 0.0 | 0.00 | 0.00 | 0.00 | 42 | 1024.1 |
| 20260506162845 | 20 | 173 | 1.6 | 1.6 | 0.00 | 0.00 | 0.00 | 39 | 1023.9 |
| 20260506162343 | 20 | 112 | 0.0 | 0.0 | 0.00 | 0.00 | 0.00 | 43 | 1023.8 |
| 20260506161840 | 18 | 98 | 0.0 | 0.0 | 0.00 | 0.00 | 0.00 | 40 | 1023.8 |
| 20260506161337 | 17 | 80 | 1.6 | 1.6 | 0.00 | 0.00 | 0.00 | 42 | 1023.9 |
| 20260506160835 | 18 | 161 | 1.6 | 3.2 | 0.00 | 0.00 | 0.00 | 42 | 1023.9 |
| 20260506160331 | 18 | 158 | 0.0 | 0.0 | 0.00 | 0.00 | 0.00 | 45 | 1023.5 |
| 20260506155830 | 17 | 23 | 1.6 | 1.6 | 0.00 | 0.00 | 0.00 | 44 | 1023.8 |
| 20260506155326 | 17 | 355 | 0.0 | 0.0 | 0.00 | 0.00 | 0.00 | 44 | 1023.8 |
| 20260506153439 | 16 | 344 | 4.8 | 8.0 | 0.00 | 0.00 | 0.00 | 46 | 1023.5 |
| 20260506152936 | 16 | 300 | 6.4 | 8.0 | 0.00 | 0.00 | 0.00 | 47 | 1023.6 |
| 20260506152433 | 15 | 350 | 6.4 | 8.0 | 0.00 | 0.00 | 0.00 | 48 | 1023.5 |
| 20260506151932 | 15 | 355 | 1.6 | 3.2 | 0.00 | 0.00 | 0.00 | 50 | 1023.4 |
| 20260506151428 | 15 | 359 | 6.4 | 9.7 | 0.00 | 0.00 | 0.00 | 51 | 1023.2 |
| 20260506150926 | 14 | 304 | 9.7 | 12.9 | 0.00 | 0.00 | 0.00 | 52 | 1023.4 |
| 20260506150421 | 13 | 252 | 1.6 | 3.2 | 0.00 | 0.00 | 0.00 | 58 | 1023.4 |
| 20260506145919 | 11 | 280 | 4.8 | 4.8 | 0.00 | 0.00 | 0.00 | 61 | 1023.5 |
| 20260506145415 | 11 | 296 | 6.4 | 8.0 | 0.00 | 0.00 | 0.00 | 63 | 1023.4 |
| 20260506144913 | 11 | 301 | 3.2 | 3.2 | 0.00 | 0.00 | 0.00 | 64 | 1023.4 |
| 20260506144409 | 11 | 267 | 4.8 | 4.8 | 0.00 | 0.00 | 0.00 | 64 | 1023.2 |
| 20260506143908 | 12 | 313 | 4.8 | 4.8 | 0.00 | 0.00 | 0.00 | 60 | 1023.3 |
| 20260506143404 | 12 | 288 | 4.8 | 4.8 | 0.00 | 0.00 | 0.00 | 61 | 1023.4 |
| 20260506142902 | 12 | 301 | 4.8 | 9.7 | 0.00 | 0.00 | 0.00 | 60 | 1023.2 |
| 20260506142400 | 12 | 328 | 6.4 | 9.7 | 0.00 | 0.00 | 0.00 | 59 | 1023.1 |
| 20260506141858 | 11 | 292 | 3.2 | 4.8 | 0.00 | 0.00 | 0.00 | 59 | 1023.2 |
| 20260506141356 | 12 | 339 | 3.2 | 3.2 | 0.00 | 0.00 | 0.00 | 60 | 1023.3 |
| 20260506140854 | 12 | 342 | 4.8 | 4.8 | 0.00 | 0.00 | 0.00 | 56 | 1023.0 |
| 20260506140350 | 12 | 354 | 3.2 | 4.8 | 0.00 | 0.00 | 0.00 | 55 | 1023.0 |
| 20260506135847 | 12 | 337 | 6.4 | 8.0 | 0.00 | 0.00 | 0.00 | 58 | 1022.9 |
| 20260506135344 | 12 | 17 | 6.4 | 12.9 | 0.00 | 0.00 | 0.00 | 56 | 1022.7 |
| 20260506134840 | 12 | 320 | 8.0 | 9.7 | 0.00 | 0.00 | 0.00 | 55 | 1022.9 |
| 20260506134337 | 12 | 18 | 8.0 | 14.5 | 0.00 | 0.00 | 0.00 | 58 | 1022.4 |
| 20260506133834 | 12 | 21 | 11.3 | 14.5 | 0.00 | 0.00 | 0.00 | 57 | 1022.6 |
| 20260506133331 | 11 | 10 | 9.7 | 11.3 | 0.00 | 0.00 | 0.00 | 58 | 1022.5 |
| 20260506132827 | 11 | 355 | 11.3 | 14.5 | 0.00 | 0.00 | 0.00 | 58 | 1022.4 |
| 20260506132325 | 10 | 46 | 4.8 | 4.8 | 0.00 | 0.00 | 0.00 | 64 | 1022.3 |
| 20260506131823 | 10 | 351 | 3.2 | 3.2 | 0.00 | 0.00 | 0.00 | 67 | 1022.4 |
| 20260506131318 | 11 | 280 | 4.8 | 4.8 | 0.00 | 0.00 | 0.00 | 62 | 1022.1 |
| 20260506130816 | 11 | 312 | 6.4 | 9.7 | 0.00 | 0.00 | 0.00 | 59 | 1022.3 |
| 20260506130312 | 11 | 32 | 1.6 | 3.2 | 0.00 | 0.00 | 0.00 | 60 | 1022.2 |
| 20260506125810 | 11 | 29 | 1.6 | 3.2 | 0.00 | 0.00 | 0.00 | 61 | 1022.3 |
| 20260506125308 | 11 | 327 | 3.2 | 3.2 | 0.00 | 0.00 | 0.00 | 62 | 1021.9 |
| 20260506124807 | 11 | 33 | 4.8 | 4.8 | 0.00 | 0.00 | 0.00 | 64 | 1022.1 |
| 20260506124303 | 10 | 57 | 3.2 | 4.8 | 0.00 | 0.00 | 0.00 | 67 | 1021.9 |
| 20260506123801 | 9 | 297 | 1.6 | 3.2 | 0.00 | 0.00 | 0.00 | 74 | 1021.7 |
| 20260506123259 | 9 | 279 | 3.2 | 4.8 | 0.00 | 0.00 | 0.00 | 74 | 1021.8 |
| 20260506122755 | 9 | 293 | 4.8 | 8.0 | 0.00 | 0.00 | 0.00 | 73 | 1021.7 |
| 20260506122253 | 9 | 281 | 1.6 | 3.2 | 0.00 | 0.00 | 0.00 | 74 | 1021.7 |
| 20260506121751 | 9 | 275 | 1.6 | 3.2 | 0.00 | 0.00 | 0.00 | 73 | 1021.6 |
| 20260506121248 | 10 | 316 | 3.2 | 4.8 | 0.00 | 0.00 | 0.00 | 72 | 1021.7 |
| 20260506120745 | 10 | 294 | 1.6 | 3.2 | 0.00 | 0.00 | 0.00 | 71 | 1021.5 |
| 20260506120243 | 10 | 266 | 1.6 | 3.2 | 0.00 | 0.00 | 0.00 | 70 | 1021.4 |
| 20260506115740 | 10 | 273 | 1.6 | 3.2 | 0.00 | 0.00 | 0.00 | 71 | 1021.6 |
| 20260506115238 | 10 | 277 | 3.2 | 3.2 | 0.00 | 0.00 | 0.00 | 72 | 1021.5 |
| 20260506114736 | 10 | 281 | 1.6 | 3.2 | 0.00 | 0.00 | 0.00 | 72 | 1021.4 |
| 20260506114233 | 10 | 293 | 1.6 | 1.6 | 0.00 | 0.00 | 0.00 | 71 | 1021.3 |
| 20260506113731 | 10 | 333 | 4.8 | 4.8 | 0.00 | 0.00 | 0.00 | 72 | 1021.5 |
| 20260506113228 | 10 | 253 | 1.6 | 1.6 | 0.00 | 0.00 | 0.00 | 72 | 1021.2 |
| 20260506112724 | 10 | 305 | 3.2 | 4.8 | 0.00 | 0.00 | 0.00 | 71 | 1021.3 |
| 20260506112222 | 10 | 349 | 6.4 | 8.0 | 0.00 | 0.00 | 0.00 | 70 | 1021.6 |
| 20260506111720 | 10 | 61 | 0.0 | 0.0 | 0.00 | 0.00 | 0.00 | 69 | 1021.5 |
| 20260506111218 | 10 | 313 | 1.6 | 1.6 | 0.00 | 0.00 | 0.00 | 69 | 1021.3 |
| 20260506110714 | 10 | 312 | 1.6 | 1.6 | 0.00 | 0.00 | 0.00 | 68 | 1021.3 |
| 20260506110212 | 11 | 341 | 3.2 | 3.2 | 0.00 | 0.00 | 0.00 | 67 | 1021.4 |
| 20260506105708 | 11 | 348 | 6.4 | 9.7 | 0.00 | 0.00 | 0.00 | 66 | 1021.3 |
| 20260506105205 | 11 | 339 | 1.6 | 3.2 | 0.00 | 0.00 | 0.00 | 64 | 1021.2 |
| 20260506104704 | 11 | 330 | 6.4 | 8.0 | 0.00 | 0.00 | 0.00 | 63 | 1021.3 |
| 20260506104201 | 12 | 5 | 3.2 | 3.2 | 0.00 | 0.00 | 0.00 | 62 | 1020.9 |
| 20260506103658 | 11 | 307 | 4.8 | 4.8 | 0.00 | 0.00 | 0.00 | 63 | 1020.8 |
| 20260506103155 | 12 | 353 | 6.4 | 8.0 | 0.00 | 0.00 | 0.00 | 63 | 1020.9 |
| 20260506102653 | 12 | 313 | 8.0 | 11.3 | 0.00 | 0.00 | 0.00 | 63 | 1021.0 |
| 20260506102150 | 12 | 336 | 4.8 | 4.8 | 0.00 | 0.00 | 0.00 | 63 | 1021.0 |
| 20260506101647 | 12 | 333 | 4.8 | 4.8 | 0.00 | 0.00 | 0.00 | 64 | 1020.7 |
| 20260506101144 | 12 | 308 | 4.8 | 4.8 | 0.00 | 0.00 | 0.00 | 63 | 1020.6 |
| 20260506100642 | 11 | 331 | 3.2 | 3.2 | 0.00 | 0.00 | 0.00 | 68 | 1020.9 |
| 20260506100140 | 11 | 255 | 3.2 | 3.2 | 0.00 | 0.00 | 0.00 | 72 | 1020.7 |
| 20260506095638 | 11 | 319 | 3.2 | 4.8 | 0.00 | 0.00 | 0.00 | 72 | 1020.7 |
| 20260506095134 | 10 | 2 | 4.8 | 8.0 | 0.00 | 0.00 | 0.00 | 73 | 1021.0 |
| 20260506094632 | 10 | 332 | 0.0 | 0.0 | 0.00 | 0.00 | 0.00 | 72 | 1020.8 |
| 20260506094130 | 11 | 58 | 0.0 | 0.0 | 0.00 | 0.00 | 0.00 | 71 | 1020.9 |
| 20260506093628 | 11 | 6 | 3.2 | 3.2 | 0.00 | 0.00 | 0.00 | 69 | 1020.8 |
| 20260506093125 | 11 | 102 | 0.0 | 0.0 | 0.00 | 0.00 | 0.00 | 71 | 1020.7 |
| 20260506092623 | 11 | 102 | 1.6 | 1.6 | 0.00 | 0.00 | 0.00 | 70 | 1020.9 |
| 20260506092119 | 10 | 98 | 0.0 | 1.6 | 0.00 | 0.00 | 0.00 | 71 | 1020.7 |
| 20260506091617 | 10 | 93 | 0.0 | 1.6 | 0.00 | 0.00 | 0.00 | 72 | 1021.0 |
| 20260506091115 | 11 | 93 | 0.0 | 0.0 | 0.00 | 0.00 | 0.00 | 72 | 1020.8 |
| 20260506090613 | 11 | 93 | 0.0 | 1.6 | 0.00 | 0.00 | 0.00 | 71 | 1020.7 |
| 20260506090108 | 10 | 1 | 0.0 | 0.0 | 0.00 | 0.00 | 0.00 | 72 | 1020.9 |
| 20260506085605 | 11 | 356 | 1.6 | 3.2 | 0.00 | 0.00 | 0.00 | 71 | 1020.7 |
| 20260506085102 | 11 | 278 | 0.0 | 0.0 | 0.00 | 0.00 | 0.00 | 70 | 1020.7 |
| 20260506084559 | 11 | 278 | 1.6 | 1.6 | 0.00 | 0.00 | 0.00 | 70 | 1020.9 |
| 20260506084055 | 11 | 288 | 0.0 | 0.0 | 0.00 | 0.00 | 0.00 | 67 | 1020.6 |
| 20260506083552 | 11 | 314 | 3.2 | 3.2 | 0.00 | 0.00 | 0.00 | 66 | 1020.9 |
| 20260506083050 | 11 | 16 | 1.6 | 1.6 | 0.00 | 0.00 | 0.00 | 67 | 1020.6 |
| 20260506082546 | 11 | 337 | 3.2 | 3.2 | 0.00 | 0.00 | 0.00 | 69 | 1020.7 |
| 20260506082042 | 11 | 346 | 3.2 | 3.2 | 0.00 | 0.00 | 0.00 | 68 | 1020.6 |
| 20260506081540 | 11 | 347 | 1.6 | 1.6 | 0.00 | 0.00 | 0.00 | 66 | 1020.5 |
| 20260506081037 | 12 | 326 | 1.6 | 4.8 | 0.00 | 0.00 | 0.00 | 66 | 1020.5 |
| 20260506080535 | 12 | 284 | 3.2 | 4.8 | 0.00 | 0.00 | 0.00 | 58 | 1020.6 |
| 20260506073519 | 12 | 345 | 6.4 | 8.0 | 0.00 | 0.00 | 0.00 | 61 | 1020.7 |
| 20260506073015 | 12 | 356 | 1.6 | 3.2 | 0.00 | 0.00 | 0.00 | 66 | 1020.6 |
| 20260506072512 | 12 | 285 | 4.8 | 8.0 | 0.00 | 0.00 | 0.00 | 66 | 1020.6 |
| 20260506072010 | 12 | 244 | 1.6 | 3.2 | 0.00 | 0.00 | 0.00 | 67 | 1020.6 |
| 20260506071508 | 12 | 270 | 3.2 | 3.2 | 0.00 | 0.00 | 0.00 | 67 | 1020.4 |
| 20260506071005 | 11 | 303 | 1.6 | 1.6 | 0.00 | 0.00 | 0.00 | 69 | 1020.1 |
| 20260506070502 | 11 | 316 | 3.2 | 3.2 | 0.00 | 0.00 | 0.00 | 71 | 1020.4 |
| 20260506062439 | 11 | 311 | 0.0 | 0.0 | 0.00 | 0.30 | 0.30 | 70 | 1020.0 |
| 20260506061935 | 11 | 355 | 1.6 | 3.2 | 0.00 | 0.30 | 0.30 | 70 | 1020.0 |
| 20260506061432 | 11 | 275 | 0.0 | 0.0 | 0.00 | 0.30 | 0.30 | 70 | 1020.1 |
| 20260506060930 | 11 | 275 | 0.0 | 0.0 | 0.00 | 0.30 | 0.30 | 69 | 1020.0 |
| 20260506060428 | 11 | 273 | 0.0 | 1.6 | 0.00 | 0.30 | 0.30 | 70 | 1020.1 |
| 20260506051400 | 11 | 263 | 0.0 | 0.0 | 0.00 | 0.30 | 0.30 | 68 | 1019.3 |
| 20260506050857 | 11 | 263 | 0.0 | 0.0 | 0.00 | 0.30 | 0.30 | 67 | 1019.6 |
| 20260506050354 | 11 | 263 | 3.2 | 3.2 | 0.00 | 0.30 | 0.30 | 68 | 1019.5 |
| 20260506044845 | 12 | 316 | 3.2 | 4.8 | 0.00 | 0.30 | 0.30 | 65 | 1019.5 |
| 20260506044343 | 11 | 244 | 1.6 | 3.2 | 0.00 | 0.30 | 0.30 | 67 | 1019.2 |
| 20260506043839 | 12 | 264 | 1.6 | 1.6 | 0.00 | 0.30 | 0.30 | 68 | 1019.1 |
| 20260506043337 | 12 | 266 | 1.6 | 1.6 | 0.00 | 0.30 | 0.30 | 68 | 1019.0 |
| 20260506042835 | 12 | 265 | 1.6 | 1.6 | 0.00 | 0.30 | 0.30 | 67 | 1019.0 |
| 20260506042334 | 12 | 269 | 1.6 | 1.6 | 0.00 | 0.30 | 0.30 | 67 | 1019.0 |
| 20260506041832 | 12 | 310 | 6.4 | 8.0 | 0.00 | 0.30 | 0.30 | 65 | 1018.5 |
| 20260506041329 | 12 | 302 | 4.8 | 4.8 | 0.00 | 0.30 | 0.30 | 64 | 1018.8 |
| 20260506040826 | 12 | 343 | 6.4 | 8.0 | 0.00 | 0.30 | 0.30 | 63 | 1018.8 |
| 20260506040323 | 12 | 344 | 4.8 | 4.8 | 0.00 | 0.30 | 0.30 | 66 | 1018.7 |
| 20260506035819 | 12 | 285 | 8.0 | 9.7 | 0.00 | 0.30 | 0.30 | 67 | 1018.4 |
| 20260506035317 | 12 | 279 | 1.6 | 3.2 | 0.00 | 0.30 | 0.30 | 65 | 1018.4 |
| 20260506034814 | 13 | 297 | 3.2 | 3.2 | 0.00 | 0.30 | 0.30 | 64 | 1018.4 |
| 20260506034311 | 13 | 275 | 3.2 | 4.8 | 0.00 | 0.30 | 0.30 | 63 | 1018.2 |
| 20260506033808 | 13 | 270 | 1.6 | 3.2 | 0.00 | 0.30 | 0.30 | 61 | 1018.0 |
| 20260506033305 | 13 | 286 | 6.4 | 8.0 | 0.00 | 0.30 | 0.30 | 62 | 1018.0 |
| 20260506032802 | 13 | 268 | 3.2 | 8.0 | 0.00 | 0.30 | 0.30 | 62 | 1018.0 |
| 20260506032259 | 13 | 304 | 8.0 | 9.7 | 0.00 | 0.30 | 0.30 | 60 | 1017.9 |
| 20260506031755 | 13 | 291 | 6.4 | 8.0 | 0.00 | 0.30 | 0.30 | 59 | 1018.0 |
| 20260506031253 | 13 | 292 | 9.7 | 12.9 | 0.00 | 0.30 | 0.30 | 57 | 1017.6 |
| 20260506030751 | 14 | 293 | 8.0 | 9.7 | 0.00 | 0.30 | 0.30 | 55 | 1017.6 |
| 20260506030248 | 14 | 289 | 4.8 | 4.8 | 0.00 | 0.30 | 0.30 | 54 | 1017.4 |
| 20260506025745 | 15 | 318 | 4.8 | 4.8 | 0.00 | 0.30 | 0.30 | 53 | 1017.2 |
| 20260506025241 | 15 | 327 | 4.8 | 4.8 | 0.00 | 0.30 | 0.30 | 53 | 1017.3 |
| 20260506024738 | 15 | 331 | 4.8 | 4.8 | 0.00 | 0.30 | 0.30 | 51 | 1017.2 |
| 20260506024235 | 15 | 279 | 4.8 | 8.0 | 0.00 | 0.30 | 0.30 | 50 | 1017.2 |
| 20260506023731 | 15 | 303 | 3.2 | 3.2 | 0.00 | 0.30 | 0.30 | 50 | 1017.1 |
| 20260506023228 | 15 | 301 | 1.6 | 3.2 | 0.00 | 0.30 | 0.30 | 49 | 1016.8 |
| 20260506022725 | 15 | 322 | 4.8 | 8.0 | 0.00 | 0.30 | 0.30 | 49 | 1016.7 |
| 20260506022223 | 16 | 309 | 8.0 | 11.3 | 0.00 | 0.30 | 0.30 | 48 | 1017.0 |
| 20260506021721 | 16 | 304 | 1.6 | 3.2 | 0.00 | 0.30 | 0.30 | 46 | 1016.7 |
| 20260506021218 | 16 | 2 | 8.0 | 11.3 | 0.00 | 0.30 | 0.30 | 44 | 1016.8 |
| 20260506020714 | 16 | 251 | 3.2 | 3.2 | 0.00 | 0.30 | 0.30 | 46 | 1016.8 |
| 20260506020212 | 16 | 350 | 4.8 | 4.8 | 0.00 | 0.30 | 0.30 | 45 | 1016.6 |
| 20260506015709 | 16 | 327 | 6.4 | 8.0 | 0.00 | 0.30 | 0.30 | 44 | 1017.0 |
| 20260506015207 | 16 | 296 | 11.3 | 14.5 | 0.00 | 0.30 | 0.30 | 43 | 1016.7 |
| 20260506014704 | 16 | 346 | 12.9 | 16.1 | 0.00 | 0.30 | 0.30 | 42 | 1016.7 |
| 20260506014159 | 16 | 340 | 8.0 | 12.9 | 0.00 | 0.30 | 0.30 | 40 | 1016.6 |
| 20260506013657 | 16 | 256 | 9.7 | 12.9 | 0.00 | 0.30 | 0.30 | 40 | 1016.7 |
| 20260506013154 | 17 | 9 | 14.5 | 17.7 | 0.00 | 0.30 | 0.30 | 39 | 1016.7 |
| 20260506012650 | 17 | 1 | 16.1 | 17.7 | 0.00 | 0.30 | 0.30 | 38 | 1016.4 |
| 20260506012147 | 17 | 2 | 8.0 | 11.3 | 0.00 | 0.30 | 0.30 | 38 | 1016.3 |
| 20260506011639 | 17 | 26 | 9.7 | 12.9 | 0.00 | 0.30 | 0.30 | 39 | 1016.3 |
| 20260506011136 | 17 | 302 | 11.3 | 20.9 | 0.00 | 0.30 | 0.30 | 38 | 1016.4 |
| 20260506010635 | 17 | 27 | 12.9 | 20.9 | 0.00 | 0.30 | 0.30 | 38 | 1016.3 |
| 20260506010131 | 17 | 317 | 11.3 | 12.9 | 0.00 | 0.30 | 0.30 | 38 | 1016.2 |
| 20260506005628 | 18 | 14 | 8.0 | 12.9 | 0.00 | 0.30 | 0.30 | 37 | 1016.0 |
| 20260506005124 | 18 | 359 | 12.9 | 14.5 | 0.00 | 0.30 | 0.30 | 36 | 1016.0 |
| 20260506004621 | 18 | 52 | 12.9 | 16.1 | 0.00 | 0.30 | 0.30 | 36 | 1015.9 |
| 20260506004118 | 18 | 345 | 8.0 | 12.9 | 0.00 | 0.30 | 0.30 | 36 | 1016.0 |
| 20260506003614 | 18 | 333 | 8.0 | 11.3 | 0.00 | 0.30 | 0.30 | 36 | 1016.0 |
| 20260506003110 | 18 | 26 | 12.9 | 16.1 | 0.00 | 0.30 | 0.30 | 37 | 1015.8 |
| 20260506002606 | 18 | 352 | 8.0 | 11.3 | 0.00 | 0.30 | 0.30 | 36 | 1015.8 |
| 20260506002102 | 19 | 17 | 9.7 | 11.3 | 0.00 | 0.30 | 0.30 | 36 | 1015.7 |
| 20260506001559 | 19 | 309 | 4.8 | 8.0 | 0.00 | 0.30 | 0.30 | 35 | 1015.7 |
| 20260506001056 | 19 | 264 | 1.6 | 1.6 | 0.00 | 0.30 | 0.30 | 32 | 1015.6 |
| 20260506000553 | 19 | 293 | 6.4 | 8.0 | 0.00 | 0.30 | 0.30 | 32 | 1015.7 |
| 20260506000051 | 19 | 266 | 4.8 | 4.8 | 0.00 | 0.30 | 0.30 | 32 | 1015.7 |
| 20260505235548 | 19 | 0 | 3.2 | 3.2 | 0.00 | 0.30 | 0.30 | 32 | 1015.6 |
| 20260505235045 | 20 | 295 | 8.0 | 9.7 | 0.00 | 0.30 | 0.30 | 31 | 1015.5 |
| 20260505234542 | 19 | 243 | 3.2 | 3.2 | 0.00 | 0.30 | 0.30 | 31 | 1015.1 |
| 20260505234039 | 19 | 26 | 3.2 | 4.8 | 0.00 | 0.30 | 0.30 | 31 | 1015.4 |
| 20260505233536 | 20 | 19 | 1.6 | 3.2 | 0.00 | 0.30 | 0.30 | 31 | 1015.5 |
| 20260505233034 | 19 | 111 | 0.0 | 0.0 | 0.00 | 0.30 | 0.30 | 36 | 1015.6 |
| 20260505232531 | 20 | 107 | 0.0 | 1.6 | 0.00 | 0.30 | 0.30 | 35 | 1015.7 |
| 20260505232029 | 19 | 327 | 0.0 | 1.6 | 0.00 | 0.30 | 0.30 | 34 | 1015.4 |
| 20260505231525 | 18 | 206 | 4.8 | 4.8 | 0.00 | 0.30 | 0.30 | 36 | 1015.8 |
| 20260505231024 | 19 | 227 | 3.2 | 3.2 | 0.00 | 0.30 | 0.30 | 37 | 1015.6 |
| 20260505230521 | 20 | 249 | 1.6 | 3.2 | 0.00 | 0.30 | 0.30 | 36 | 1016.0 |
| 20260505230018 | 20 | 250 | 3.2 | 3.2 | 0.00 | 0.30 | 0.30 | 34 | 1015.8 |
| 20260505225514 | 19 | 311 | 0.0 | 1.6 | 0.00 | 0.30 | 0.30 | 35 | 1015.7 |
| 20260505225010 | 19 | 27 | 4.8 | 8.0 | 0.00 | 0.30 | 0.30 | 36 | 1015.9 |
| 20260505224508 | 19 | 280 | 1.6 | 4.8 | 0.00 | 0.30 | 0.30 | 39 | 1015.9 |
| 20260505224005 | 18 | 152 | 1.6 | 3.2 | 0.00 | 0.30 | 0.30 | 39 | 1016.2 |
| 20260505223502 | 18 | 82 | 1.6 | 3.2 | 0.00 | 0.30 | 0.30 | 36 | 1015.9 |
| 20260505222958 | 18 | 308 | 3.2 | 3.2 | 0.00 | 0.30 | 0.30 | 39 | 1016.3 |
| 20260505222455 | 18 | 90 | 1.6 | 3.2 | 0.00 | 0.30 | 0.30 | 39 | 1016.3 |
| 20260505221950 | 18 | 340 | 1.6 | 3.2 | 0.00 | 0.30 | 0.30 | 41 | 1016.2 |
| 20260505221448 | 19 | 202 | 0.0 | 0.0 | 0.00 | 0.30 | 0.30 | 44 | 1016.4 |
| 20260505220945 | 18 | 143 | 8.0 | 9.7 | 0.00 | 0.30 | 0.30 | 39 | 1016.3 |
| 20260505220441 | 17 | 216 | 1.6 | 1.6 | 0.00 | 0.30 | 0.30 | 38 | 1016.4 |
| 20260505215939 | 17 | 319 | 8.0 | 9.7 | 0.00 | 0.30 | 0.30 | 42 | 1016.5 |
| 20260505215437 | 18 | 216 | 0.0 | 1.6 | 0.00 | 0.30 | 0.30 | 40 | 1016.4 |
| 20260505214935 | 18 | 216 | 1.6 | 1.6 | 0.00 | 0.30 | 0.30 | 42 | 1016.6 |
| 20260505214432 | 18 | 192 | 0.0 | 1.6 | 0.00 | 0.30 | 0.30 | 43 | 1016.5 |
| 20260505213929 | 17 | 172 | 1.6 | 3.2 | 0.00 | 0.30 | 0.30 | 44 | 1016.7 |
| 20260505213427 | 17 | 227 | 3.2 | 3.2 | 0.00 | 0.30 | 0.30 | 45 | 1016.8 |
| 20260505212923 | 17 | 248 | 3.2 | 4.8 | 0.00 | 0.30 | 0.30 | 46 | 1016.8 |
| 20260505212420 | 17 | 27 | 4.8 | 4.8 | 0.00 | 0.30 | 0.30 | 46 | 1016.7 |
| 20260505211916 | 16 | 315 | 6.4 | 8.0 | 0.00 | 0.30 | 0.30 | 44 | 1017.0 |
| 20260505211414 | 17 | 118 | 1.6 | 3.2 | 0.00 | 0.30 | 0.30 | 45 | 1017.2 |
| 20260505210910 | 16 | 142 | 4.8 | 4.8 | 0.00 | 0.30 | 0.30 | 45 | 1016.8 |
| 20260505210408 | 17 | 185 | 1.6 | 1.6 | 0.00 | 0.30 | 0.30 | 45 | 1017.1 |
| 20260505205904 | 17 | 196 | 0.0 | 1.6 | 0.00 | 0.30 | 0.30 | 44 | 1016.8 |
| 20260505205403 | 16 | 178 | 3.2 | 3.2 | 0.00 | 0.30 | 0.30 | 49 | 1017.1 |
| 20260505204859 | 16 | 234 | 6.4 | 8.0 | 0.00 | 0.30 | 0.30 | 43 | 1017.2 |
| 20260505204357 | 17 | 239 | 6.4 | 8.0 | 0.00 | 0.30 | 0.30 | 46 | 1017.1 |
| 20260505203854 | 16 | 196 | 3.2 | 4.8 | 0.00 | 0.30 | 0.30 | 46 | 1017.2 |
| 20260505203350 | 17 | 205 | 6.4 | 9.7 | 0.00 | 0.30 | 0.30 | 45 | 1017.2 |
| 20260505202847 | 17 | 196 | 1.6 | 1.6 | 0.00 | 0.30 | 0.30 | 52 | 1017.0 |
| 20260505202343 | 16 | 266 | 0.0 | 1.6 | 0.00 | 0.30 | 0.30 | 57 | 1017.0 |
| 20260505201840 | 17 | 58 | 4.8 | 4.8 | 0.00 | 0.30 | 0.30 | 46 | 1017.1 |
| 20260505201337 | 16 | 185 | 0.0 | 0.0 | 0.00 | 0.30 | 0.30 | 56 | 1017.1 |
| 20260505200836 | 15 | 25 | 3.2 | 3.2 | 0.00 | 0.30 | 0.30 | 51 | 1017.3 |
| 20260505200332 | 15 | 31 | 1.6 | 1.6 | 0.00 | 0.30 | 0.30 | 51 | 1017.3 |
| 20260505195827 | 16 | 8 | 4.8 | 4.8 | 0.00 | 0.30 | 0.30 | 54 | 1017.5 |
| 20260505195325 | 16 | 174 | 3.2 | 3.2 | 0.00 | 0.30 | 0.30 | 52 | 1017.9 |
| 20260505194822 | 15 | 221 | 1.6 | 3.2 | 0.00 | 0.30 | 0.30 | 50 | 1017.7 |
| 20260505194319 | 15 | 330 | 4.8 | 8.0 | 0.00 | 0.30 | 0.30 | 54 | 1017.6 |
| 20260505193814 | 15 | 74 | 0.0 | 1.6 | 0.00 | 0.30 | 0.30 | 55 | 1017.5 |
| 20260505193312 | 15 | 355 | 1.6 | 3.2 | 0.00 | 0.30 | 0.30 | 55 | 1017.6 |
| 20260505192810 | 15 | 73 | 0.0 | 0.0 | 0.00 | 0.30 | 0.30 | 57 | 1017.7 |
| 20260505192310 | 15 | 124 | 3.2 | 4.8 | 0.00 | 0.30 | 0.30 | 55 | 1018.0 |
| 20260505191806 | 14 | 16 | 1.6 | 1.6 | 0.00 | 0.30 | 0.30 | 54 | 1017.7 |
| 20260505191304 | 14 | 22 | 3.2 | 3.2 | 0.00 | 0.30 | 0.30 | 57 | 1017.6 |
| 20260505190800 | 15 | 96 | 3.2 | 3.2 | 0.00 | 0.30 | 0.30 | 54 | 1017.5 |
| 20260505190255 | 15 | 110 | 1.6 | 3.2 | 0.00 | 0.30 | 0.30 | 54 | 1017.6 |
| 20260505185752 | 15 | 144 | 3.2 | 4.8 | 0.00 | 0.30 | 0.30 | 53 | 1017.9 |
| 20260505185248 | 13 | 143 | 1.6 | 1.6 | 0.00 | 0.30 | 0.30 | 56 | 1018.0 |
| 20260505184744 | 14 | 111 | 1.6 | 3.2 | 0.00 | 0.30 | 0.30 | 58 | 1017.9 |
| 20260505184242 | 13 | 116 | 0.0 | 0.0 | 0.00 | 0.30 | 0.30 | 57 | 1017.7 |
| 20260505183738 | 13 | 104 | 3.2 | 4.8 | 0.00 | 0.30 | 0.30 | 59 | 1017.4 |
| 20260505183236 | 13 | 86 | 3.2 | 3.2 | 0.00 | 0.30 | 0.30 | 56 | 1017.7 |
| 20260505182732 | 13 | 121 | 0.0 | 1.6 | 0.00 | 0.30 | 0.30 | 55 | 1017.9 |